createdAt,value
2022-12-12T00:00:15.117Z,2.86
2022-12-12T00:03:04.040Z,2.84
2022-12-12T00:05:55.729Z,2.89
2022-12-12T00:08:43.635Z,2.84
2022-12-12T00:11:31.872Z,2.94
2022-12-12T00:14:19.541Z,2.89
2022-12-12T00:17:07.161Z,2.86
2022-12-12T00:19:54.993Z,2.84
2022-12-12T00:22:42.693Z,2.88
2022-12-12T00:25:30.384Z,3.04
2022-12-12T00:28:18.090Z,2.97
2022-12-12T00:31:05.831Z,2.91
2022-12-12T00:33:54.024Z,2.87
2022-12-12T00:36:41.848Z,3.02
2022-12-12T00:39:29.480Z,2.92
2022-12-12T00:42:17.149Z,2.90
2022-12-12T00:45:05.103Z,2.94
2022-12-12T00:47:52.861Z,2.89
2022-12-12T00:50:40.630Z,2.92
2022-12-12T00:53:28.149Z,3.03
2022-12-12T00:56:17.725Z,2.80
2022-12-12T00:59:06.796Z,2.97
2022-12-12T01:01:54.549Z,2.87
2022-12-12T01:04:42.288Z,2.77
2022-12-12T01:07:29.884Z,2.80
2022-12-12T01:10:17.642Z,2.76
2022-12-12T01:13:05.760Z,2.76
2022-12-12T01:15:53.512Z,2.82
2022-12-12T01:18:42.345Z,2.78
2022-12-12T01:21:30.196Z,2.57
2022-12-12T01:24:17.813Z,2.54
2022-12-12T01:27:05.846Z,2.73
2022-12-12T01:29:56.252Z,2.73
2022-12-12T01:32:43.901Z,2.73
2022-12-12T01:35:33.720Z,2.76
2022-12-12T01:38:22.217Z,2.78
2022-12-12T01:41:10.328Z,2.50
2022-12-12T01:44:05.206Z,2.77
2022-12-12T01:46:52.930Z,2.77
2022-12-12T01:49:47.438Z,2.53
2022-12-12T01:52:45.709Z,2.86
2022-12-12T01:55:33.398Z,2.87
2022-12-12T01:58:21.111Z,2.79
2022-12-12T02:01:10.526Z,2.78
2022-12-12T02:04:00.783Z,3.10
2022-12-12T02:06:51.359Z,2.95
2022-12-12T02:09:39.518Z,2.95
2022-12-12T02:12:27.113Z,2.74
2022-12-12T02:15:15.130Z,2.66
2022-12-12T02:18:22.701Z,2.59
2022-12-12T02:21:31.075Z,2.60
2022-12-12T02:24:26.095Z,2.32
2022-12-12T02:27:26.182Z,2.65
2022-12-12T02:30:27.775Z,2.26
2022-12-12T02:33:20.901Z,2.52
2022-12-12T02:36:37.615Z,2.42
2022-12-12T02:39:50.658Z,2.33
2022-12-12T02:42:45.182Z,2.29
2022-12-12T02:45:49.614Z,2.07
2022-12-12T02:49:15.705Z,2.36
2022-12-12T02:52:03.775Z,2.23
2022-12-12T02:54:51.436Z,2.25
2022-12-12T02:57:41.987Z,2.39
2022-12-12T03:00:36.532Z,2.32
2022-12-12T03:03:53.919Z,2.41
2022-12-12T03:07:11.676Z,2.51
2022-12-12T03:10:17.024Z,2.47
2022-12-12T03:13:14.345Z,2.40
2022-12-12T03:16:29.549Z,2.57
2022-12-12T03:19:35.722Z,2.50
2022-12-12T03:22:35.369Z,2.29
2022-12-12T03:25:47.782Z,2.62
2022-12-12T03:28:40.709Z,2.62
2022-12-12T03:31:33.016Z,2.57
2022-12-12T03:34:25.764Z,2.82
2022-12-12T03:37:22.394Z,2.73
2022-12-12T03:40:20.873Z,2.68
2022-12-12T03:43:17.943Z,2.69
2022-12-12T03:46:16.745Z,2.70
2022-12-12T03:49:31.575Z,2.60
2022-12-12T03:52:36.212Z,2.69
2022-12-12T03:55:52.937Z,2.61
2022-12-12T03:58:47.551Z,2.54
2022-12-12T04:01:59.304Z,2.55
2022-12-12T04:05:11.170Z,2.69
2022-12-12T04:08:08.981Z,2.66
2022-12-12T04:11:21.929Z,2.65
2022-12-12T04:14:42.033Z,2.63
2022-12-12T04:17:50.527Z,2.59
2022-12-12T04:21:25.722Z,2.53
2022-12-12T04:24:30.953Z,2.64
2022-12-12T04:27:21.385Z,2.66
2022-12-12T04:30:12.205Z,2.66
2022-12-12T04:33:10.260Z,2.56
2022-12-12T04:36:00.845Z,2.72
2022-12-12T04:38:51.217Z,2.65
2022-12-12T04:41:42.398Z,2.67
2022-12-12T04:44:32.956Z,2.49
2022-12-12T04:47:23.396Z,2.77
2022-12-12T04:50:12.366Z,2.43
2022-12-12T04:53:07.592Z,2.52
2022-12-12T04:56:05.556Z,2.46
2022-12-12T04:58:53.336Z,2.44
2022-12-12T05:02:02.855Z,2.34
2022-12-12T05:05:17.168Z,2.38
2022-12-12T05:08:34.523Z,2.23
2022-12-12T05:11:25.411Z,2.14
2022-12-12T05:14:15.904Z,2.15
2022-12-12T05:17:11.978Z,2.03
2022-12-12T05:19:59.611Z,1.97
2022-12-12T05:22:47.274Z,1.91
2022-12-12T05:25:35.945Z,1.85
2022-12-12T05:28:23.615Z,1.53
2022-12-12T05:31:11.478Z,1.72
2022-12-12T05:34:01.582Z,1.68
2022-12-12T05:36:49.235Z,1.81
2022-12-12T05:39:37.040Z,2.11
2022-12-12T05:42:24.859Z,2.14
2022-12-12T05:45:12.795Z,2.13
2022-12-12T05:48:03.695Z,1.97
2022-12-12T05:50:51.726Z,2.20
2022-12-12T05:53:43.251Z,2.18
2022-12-12T05:56:31.007Z,2.19
2022-12-12T05:59:18.667Z,2.21
2022-12-12T06:02:06.463Z,2.22
2022-12-12T06:04:54.193Z,2.27
2022-12-12T06:07:41.844Z,2.14
2022-12-12T06:10:29.437Z,1.89
2022-12-12T06:13:17.138Z,2.02
2022-12-12T06:16:09.741Z,2.10
2022-12-12T06:18:57.569Z,2.19
2022-12-12T06:21:45.334Z,2.13
2022-12-12T06:24:32.905Z,2.19
2022-12-12T06:27:20.647Z,2.54
2022-12-12T06:30:09.062Z,2.57
2022-12-12T06:32:56.602Z,2.47
2022-12-12T06:35:44.274Z,2.72
2022-12-12T06:38:32.180Z,2.72
2022-12-12T06:41:20.419Z,2.91
2022-12-12T06:44:08.284Z,2.91
2022-12-12T06:46:55.920Z,3.00
2022-12-12T06:49:43.740Z,2.69
2022-12-12T06:52:31.558Z,2.91
2022-12-12T06:55:19.211Z,2.94
2022-12-12T06:58:06.904Z,2.93
2022-12-12T07:00:57.195Z,2.87
2022-12-12T07:03:45.628Z,2.98
2022-12-12T07:06:33.216Z,3.12
2022-12-12T07:09:21.180Z,3.06
2022-12-12T07:12:08.981Z,3.12
2022-12-12T07:14:56.600Z,3.11
2022-12-12T07:17:44.314Z,3.10
2022-12-12T07:20:37.619Z,3.05
2022-12-12T07:23:25.247Z,3.35
2022-12-12T07:26:21.212Z,3.45
2022-12-12T07:29:11.912Z,3.70
2022-12-12T07:31:59.810Z,3.43
2022-12-12T07:34:47.492Z,3.91
2022-12-12T07:37:38.534Z,4.04
2022-12-12T07:40:26.633Z,4.13
2022-12-12T07:43:16.685Z,4.09
2022-12-12T07:46:07.894Z,3.96
2022-12-12T07:48:57.552Z,4.11
2022-12-12T07:51:48.898Z,4.11
2022-12-12T07:54:37.001Z,3.99
2022-12-12T07:57:27.324Z,3.92
2022-12-12T08:00:15.485Z,3.58
2022-12-12T08:03:03.089Z,4.12
2022-12-12T08:05:50.807Z,4.09
2022-12-12T08:08:38.723Z,3.68
2022-12-12T08:11:26.567Z,4.18
2022-12-12T08:14:14.473Z,4.28
2022-12-12T08:17:02.193Z,4.23
2022-12-12T08:19:49.876Z,4.13
2022-12-12T08:22:37.600Z,4.16
2022-12-12T08:25:25.313Z,4.27
2022-12-12T08:28:13.040Z,4.31
2022-12-12T08:31:01.362Z,4.42
2022-12-12T08:33:53.431Z,4.38
2022-12-12T08:36:41.027Z,4.31
2022-12-12T08:39:28.689Z,4.51
2022-12-12T08:42:16.336Z,4.57
2022-12-12T08:45:04.713Z,4.79
2022-12-12T08:47:52.528Z,5.27
2022-12-12T08:50:41.602Z,4.81
2022-12-12T08:53:29.220Z,5.14
2022-12-12T08:56:18.016Z,5.09
2022-12-12T08:59:05.973Z,5.02
2022-12-12T09:01:53.726Z,4.27
2022-12-12T09:04:41.641Z,4.45
2022-12-12T09:07:29.279Z,4.86
2022-12-12T09:10:17.214Z,4.68
2022-12-12T09:13:06.929Z,4.92
2022-12-12T09:15:54.576Z,5.08
2022-12-12T09:18:48.640Z,5.26
2022-12-12T09:21:36.974Z,5.84
2022-12-12T09:24:25.724Z,5.94
2022-12-12T09:27:13.601Z,5.66
2022-12-12T09:30:01.424Z,5.23
2022-12-12T09:32:48.983Z,5.44
2022-12-12T09:35:37.006Z,5.34
2022-12-12T09:38:24.725Z,5.21
2022-12-12T09:41:17.573Z,5.05
2022-12-12T09:44:18.802Z,5.05
2022-12-12T09:47:16.859Z,5.12
2022-12-12T09:50:22.019Z,4.98
2022-12-12T09:53:16.690Z,4.90
2022-12-12T09:56:11.454Z,5.20
2022-12-12T09:59:11.547Z,5.77
2022-12-12T10:02:20.862Z,6.16
2022-12-12T10:05:26.781Z,6.39
2022-12-12T10:08:39.578Z,5.83
2022-12-12T10:11:50.453Z,5.69
2022-12-12T10:15:01.546Z,5.92
2022-12-12T10:17:49.649Z,6.08
2022-12-12T10:20:51.379Z,6.06
2022-12-12T10:23:44.887Z,5.87
2022-12-12T10:26:34.829Z,5.54
2022-12-12T10:29:26.569Z,5.84
2022-12-12T10:32:27.966Z,6.02
2022-12-12T10:35:30.474Z,5.97
2022-12-12T10:38:36.910Z,5.87
2022-12-12T10:41:39.533Z,5.79
2022-12-12T10:45:02.867Z,5.63
2022-12-12T10:47:51.116Z,5.65
2022-12-12T10:50:47.977Z,5.79
2022-12-12T10:53:35.740Z,5.69
2022-12-12T10:56:26.596Z,5.93
2022-12-12T10:59:22.152Z,5.80
2022-12-12T11:02:37.317Z,5.95
2022-12-12T11:05:32.047Z,5.79
2022-12-12T11:08:30.240Z,5.82
2022-12-12T11:11:23.833Z,5.58
2022-12-12T11:14:41.606Z,5.74
2022-12-12T11:17:33.677Z,5.10
2022-12-12T11:20:21.447Z,5.38
2022-12-12T11:23:19.114Z,5.56
2022-12-12T11:26:14.302Z,5.56
2022-12-12T11:29:05.374Z,5.81
2022-12-12T11:31:53.215Z,5.78
2022-12-12T11:34:46.527Z,5.55
2022-12-12T11:37:57.131Z,5.54
2022-12-12T11:40:58.721Z,5.43
2022-12-12T11:43:49.198Z,5.56
2022-12-12T11:46:36.857Z,5.46
2022-12-12T11:49:24.845Z,5.62
2022-12-12T11:52:24.208Z,5.84
2022-12-12T11:55:17.100Z,5.66
2022-12-12T11:58:19.848Z,5.72
2022-12-12T12:01:12.172Z,5.57
2022-12-12T12:04:12.026Z,5.68
2022-12-12T12:07:23.475Z,5.58
2022-12-12T12:10:38.027Z,5.51
2022-12-12T12:13:51.413Z,5.42
2022-12-12T12:17:11.670Z,5.34
2022-12-12T12:20:33.958Z,5.04
2022-12-12T12:23:41.851Z,5.31
2022-12-12T12:26:49.888Z,5.12
2022-12-12T12:29:48.267Z,5.23
2022-12-12T12:33:04.886Z,5.10
2022-12-12T12:36:00.624Z,5.15
2022-12-12T12:39:11.655Z,4.93
2022-12-12T12:42:04.018Z,5.15
2022-12-12T12:45:28.763Z,4.64
2022-12-12T12:48:42.032Z,4.82
2022-12-12T12:51:37.997Z,4.79
2022-12-12T12:54:34.125Z,4.54
2022-12-12T12:57:28.882Z,4.55
2022-12-12T13:00:24.984Z,4.39
2022-12-12T13:03:27.075Z,4.19
2022-12-12T13:06:22.052Z,4.48
2022-12-12T13:09:16.904Z,4.33
2022-12-12T13:12:34.107Z,4.18
2022-12-12T13:15:34.186Z,4.07
2022-12-12T13:18:30.544Z,4.09
2022-12-12T13:21:36.200Z,4.13
2022-12-12T13:24:39.414Z,4.00
2022-12-12T13:27:36.753Z,3.93
2022-12-12T13:30:28.370Z,3.89
2022-12-12T13:33:21.907Z,3.78
2022-12-12T13:36:27.619Z,3.95
2022-12-12T13:39:29.386Z,3.79
2022-12-12T13:42:17.867Z,3.96
2022-12-12T13:45:35.924Z,3.85
2022-12-12T13:48:27.483Z,3.60
2022-12-12T13:51:31.319Z,3.55
2022-12-12T13:54:18.983Z,3.36
2022-12-12T13:57:13.718Z,3.19
2022-12-12T14:00:01.361Z,2.98
2022-12-12T14:03:01.786Z,3.02
2022-12-12T14:05:52.777Z,3.15
2022-12-12T14:08:49.759Z,2.98
2022-12-12T14:11:38.006Z,2.96
2022-12-12T14:14:28.843Z,2.89
2022-12-12T14:17:23.133Z,2.76
2022-12-12T14:20:34.417Z,2.83
2022-12-12T14:23:24.620Z,2.69
2022-12-12T14:26:27.821Z,2.76
2022-12-12T14:29:18.748Z,2.66
2022-12-12T14:32:12.461Z,2.44
2022-12-12T14:35:24.207Z,2.22
2022-12-12T14:38:38.113Z,2.39
2022-12-12T14:41:36.405Z,2.08
2022-12-12T14:44:37.785Z,2.31
2022-12-12T14:47:27.440Z,2.32
2022-12-12T14:50:17.968Z,2.34
2022-12-12T14:53:16.445Z,2.42
2022-12-12T14:56:08.886Z,2.15
2022-12-12T14:58:56.488Z,2.06
2022-12-12T15:01:52.240Z,2.05
2022-12-12T15:04:40.888Z,2.00
2022-12-12T15:07:30.514Z,1.85
2022-12-12T15:10:30.755Z,1.99
2022-12-12T15:13:23.364Z,1.83
2022-12-12T15:16:11.147Z,2.03
2022-12-12T15:19:00.343Z,1.79
2022-12-12T15:21:48.602Z,1.43
2022-12-12T15:24:39.439Z,1.63
2022-12-12T15:27:55.637Z,1.79
2022-12-12T15:30:45.020Z,1.76
2022-12-12T15:33:38.702Z,1.63
2022-12-12T15:36:32.286Z,1.95
2022-12-12T15:39:21.430Z,1.82
2022-12-12T15:42:14.502Z,1.84
2022-12-12T15:45:05.628Z,1.77
2022-12-12T15:47:54.912Z,1.66
2022-12-12T15:50:42.703Z,1.80
2022-12-12T15:53:37.018Z,1.79
2022-12-12T15:56:29.865Z,1.64
2022-12-12T15:59:32.402Z,1.56
2022-12-12T16:02:38.529Z,1.19
2022-12-12T16:05:31.385Z,1.05
2022-12-12T16:08:39.323Z,0.78
2022-12-12T16:11:48.351Z,0.97
2022-12-12T16:14:40.867Z,0.31
2022-12-12T16:17:30.321Z,0.82
2022-12-12T16:20:19.314Z,0.86
2022-12-12T16:23:20.059Z,0.13
2022-12-12T16:26:10.815Z,0.68
2022-12-12T16:28:58.704Z,0.67
2022-12-12T16:31:49.391Z,0.63
2022-12-12T16:34:37.013Z,0.68
2022-12-12T16:37:24.922Z,0.57
2022-12-12T16:40:20.613Z,0.52
2022-12-12T16:43:14.156Z,0.44
2022-12-12T16:46:04.881Z,0.38
2022-12-12T16:49:25.612Z,0.60
2022-12-12T16:52:22.751Z,0.60
2022-12-12T17:43:28.644Z,0.32
2022-12-12T17:46:17.464Z,0.42
2022-12-12T17:49:05.372Z,0.18
2022-12-12T17:51:55.041Z,0.19
2022-12-12T17:54:42.755Z,0.26
2022-12-12T17:57:50.614Z,0.20
2022-12-12T18:00:38.448Z,0.17
2022-12-12T18:03:26.274Z,0.17
2022-12-12T18:06:15.940Z,0.32
2022-12-12T18:09:04.373Z,0.37
2022-12-12T18:11:52.145Z,0.13
2022-12-12T18:14:42.783Z,0.23
2022-12-12T18:17:30.457Z,0.27
2022-12-12T18:20:18.211Z,0.18
2022-12-12T18:23:05.951Z,0.24
2022-12-12T18:25:53.630Z,0.29
2022-12-12T18:28:41.230Z,0.24
2022-12-12T18:31:30.808Z,0.32
2022-12-12T18:34:18.692Z,0.33
2022-12-12T18:37:09.133Z,0.23
2022-12-12T18:39:56.748Z,0.36
2022-12-12T18:42:44.342Z,0.28
2022-12-12T18:45:35.744Z,0.33
2022-12-12T18:48:23.433Z,0.27
2022-12-12T18:51:13.851Z,0.20
2022-12-12T18:54:07.032Z,0.34
2022-12-12T18:56:58.762Z,0.23
2022-12-12T18:59:46.521Z,0.27
2022-12-12T19:02:38.642Z,0.27
2022-12-12T19:05:29.805Z,0.18
2022-12-12T19:08:17.394Z,0.20
2022-12-12T19:11:06.621Z,0.24
2022-12-12T19:13:55.490Z,0.18
2022-12-12T19:16:44.237Z,0.36
2022-12-12T19:19:31.911Z,0.32
2022-12-12T19:22:43.774Z,0.15
2022-12-12T19:25:30.804Z,0.11
2022-12-12T19:28:18.469Z,0.17
2022-12-12T19:31:08.537Z,0.25
2022-12-12T19:33:57.011Z,0.25
2022-12-12T19:36:45.589Z,0.12
2022-12-12T19:39:33.420Z,0.21
2022-12-12T19:42:21.320Z,0.19
2022-12-12T19:45:10.074Z,0.15
2022-12-12T19:47:57.657Z,0.22
2022-12-12T19:50:47.161Z,0.27
2022-12-12T19:53:39.953Z,0.22
2022-12-12T19:56:33.783Z,0.25
2022-12-12T19:59:21.510Z,0.25
2022-12-12T20:02:11.594Z,0.30
2022-12-12T20:04:59.169Z,0.33
2022-12-12T20:07:46.875Z,0.24
2022-12-12T20:10:38.995Z,0.20
2022-12-12T20:13:26.568Z,0.12
2022-12-12T20:16:16.514Z,0.32
2022-12-12T20:19:05.260Z,0.11
2022-12-12T20:22:02.830Z,0.17
2022-12-12T20:24:51.012Z,0.27
2022-12-12T20:27:38.530Z,0.29
2022-12-12T20:30:27.755Z,0.35
2022-12-12T20:33:15.374Z,0.37
2022-12-12T20:36:04.858Z,0.25
2022-12-12T20:38:52.775Z,0.19
2022-12-12T20:41:40.983Z,0.29
2022-12-12T20:44:29.368Z,0.35
2022-12-12T20:47:17.500Z,0.12
2022-12-12T20:50:06.559Z,0.22
2022-12-12T20:52:54.260Z,0.18
2022-12-12T20:55:41.982Z,0.19
2022-12-12T20:58:29.888Z,0.13
2022-12-12T21:01:20.049Z,0.19
2022-12-12T21:04:11.376Z,0.07
2022-12-12T21:06:59.154Z,0.10
2022-12-12T21:09:46.966Z,0.13
2022-12-12T21:12:34.704Z,0.17
2022-12-12T21:15:23.569Z,0.10
2022-12-12T21:18:11.309Z,0.02
2022-12-12T21:20:58.952Z,0.08
2022-12-12T21:23:47.425Z,-0.09
2022-12-12T21:26:35.393Z,-0.08
2022-12-12T21:29:22.974Z,-0.01
2022-12-12T21:32:11.073Z,0.07
2022-12-12T21:34:58.690Z,0.06
2022-12-12T21:37:47.616Z,-0.07
2022-12-12T21:40:36.865Z,-0.10
2022-12-12T21:43:24.609Z,-0.10
2022-12-12T21:46:20.896Z,-0.23
2022-12-12T21:49:28.775Z,-0.15
2022-12-12T21:52:16.450Z,-0.21
2022-12-12T21:55:06.240Z,-0.20
2022-12-12T21:57:54.701Z,-0.18
2022-12-12T22:00:44.769Z,-0.16
2022-12-12T22:04:04.283Z,-0.18
2022-12-12T22:06:52.194Z,-0.27
2022-12-12T22:09:40.290Z,-0.30
2022-12-12T22:12:30.980Z,-0.17
2022-12-12T22:15:18.664Z,-0.15
2022-12-12T22:18:07.439Z,-0.19
2022-12-12T22:20:55.337Z,-0.27
2022-12-12T22:23:43.365Z,-0.43
2022-12-12T22:26:34.379Z,-0.42
2022-12-12T22:29:22.162Z,-0.58
2022-12-12T22:32:09.794Z,-0.48
2022-12-12T22:34:58.617Z,-0.59
2022-12-12T22:37:46.224Z,-0.68
2022-12-12T22:40:33.919Z,-0.66
2022-12-12T22:43:21.676Z,-0.78
2022-12-12T22:46:11.185Z,-0.86
2022-12-12T22:49:01.104Z,-0.82
2022-12-12T22:51:49.684Z,-1.25
2022-12-12T22:54:37.481Z,-0.82
2022-12-12T22:57:25.224Z,-0.99
2022-12-12T23:00:13.677Z,-1.31
2022-12-12T23:03:01.347Z,-1.10
2022-12-12T23:05:49.084Z,-1.19
2022-12-12T23:08:36.897Z,-1.26
2022-12-12T23:11:26.368Z,-1.13
2022-12-12T23:14:19.619Z,-1.24
2022-12-12T23:17:07.225Z,-1.11
2022-12-12T23:19:54.980Z,-1.31
2022-12-12T23:22:44.171Z,-1.41
2022-12-12T23:25:31.832Z,-1.45
2022-12-12T23:28:19.667Z,-1.56
2022-12-12T23:31:10.140Z,-1.63
2022-12-12T23:34:00.085Z,-1.60
2022-12-12T23:36:48.141Z,-1.65
2022-12-12T23:39:35.903Z,-1.78
2022-12-12T23:42:23.505Z,-1.85
2022-12-12T23:45:13.796Z,-1.84
2022-12-12T23:48:01.753Z,-1.90
2022-12-12T23:50:49.411Z,-1.94
2022-12-12T23:53:37.193Z,-2.16
2022-12-12T23:56:26.190Z,-2.12
2022-12-12T23:59:17.998Z,-2.00
